Time;durP1;ratioP1;P1;durP2;ratioP2;P2;SDS_P1;SDS_P2;PMS_P1;PMS_P2;Temp;Humidity;BMP_temperature;BMP_pressure;BME280_temperature;BME280_humidity;BME280_pressure;Samples;Min_cycle;Max_cycle;Signal;HPM_P1;HPM_P2
2023/06/01 00:00:00;;;;;;;4.93;4.40;;;14.40;99.90;;;;;;4902378;29;20209;-81
2023/06/01 00:02:27;;;;;;;11.88;4.18;;;14.20;99.90;;;;;;4897999;29;20201;-80
2023/06/01 00:04:54;;;;;;;5.30;4.80;;;14.30;99.90;;;;;;4897106;29;20274;-79
2023/06/01 00:07:23;;;;;;;5.32;4.82;;;14.30;99.90;;;;;;4902531;29;20210;-83
2023/06/01 00:09:50;;;;;;;10.18;4.65;;;14.30;99.90;;;;;;4910579;29;20197;-81
2023/06/01 00:12:17;;;;;;;5.10;4.40;;;14.20;99.90;;;;;;4921204;29;20256;-81
2023/06/01 00:14:45;;;;;;;5.65;5.05;;;14.20;99.90;;;;;;4909290;29;20213;-81
2023/06/01 00:17:14;;;;;;;5.82;4.40;;;13.90;99.90;;;;;;4901158;29;20248;-83
2023/06/01 00:19:44;;;;;;;6.82;4.40;;;14.10;99.90;;;;;;4899097;29;20219;-81
2023/06/01 00:22:12;;;;;;;6.43;4.60;;;14.10;99.90;;;;;;4902149;29;20213;-80
2023/06/01 00:24:38;;;;;;;7.55;4.93;;;14.00;99.90;;;;;;4907345;29;20240;-80
2023/06/01 00:27:07;;;;;;;6.97;4.97;;;14.10;99.90;;;;;;4896432;29;20270;-80
2023/06/01 00:29:34;;;;;;;7.72;5.88;;;14.00;99.90;;;;;;4915620;29;20213;-82
2023/06/01 00:32:00;;;;;;;8.60;5.10;;;13.90;99.90;;;;;;4893485;29;20233;-80
2023/06/01 00:34:27;;;;;;;10.15;5.53;;;13.90;99.90;;;;;;4904091;29;20252;-79
2023/06/01 00:36:55;;;;;;;6.65;4.70;;;14.00;99.90;;;;;;4889367;29;20209;-82
2023/06/01 00:39:22;;;;;;;13.43;5.18;;;13.60;99.90;;;;;;4895506;29;20227;-80
2023/06/01 00:41:49;;;;;;;7.93;4.60;;;14.00;99.90;;;;;;4895518;29;20228;-81
2023/06/01 00:44:18;;;;;;;6.22;4.50;;;14.00;99.90;;;;;;4902863;29;20240;-80
2023/06/01 00:46:45;;;;;;;6.47;5.75;;;14.00;99.90;;;;;;4887830;29;20701;-81
2023/06/01 00:49:12;;;;;;;5.47;4.93;;;13.90;99.90;;;;;;4904114;29;20214;-80
2023/06/01 00:51:40;;;;;;;6.13;4.78;;;13.90;99.90;;;;;;4902176;29;20525;-81
2023/06/01 00:54:08;;;;;;;6.07;5.10;;;13.80;99.90;;;;;;4901163;29;20217;-81
2023/06/01 00:56:36;;;;;;;7.07;5.38;;;13.80;99.90;;;;;;4897677;29;20220;-81
2023/06/01 00:59:03;;;;;;;5.68;5.07;;;13.70;99.90;;;;;;4893295;29;20217;-81
2023/06/01 01:01:31;;;;;;;6.75;4.60;;;13.30;99.90;;;;;;4899981;29;20221;-82
2023/06/01 01:04:00;;;;;;;7.18;5.30;;;13.80;99.90;;;;;;4897041;29;20256;-82
2023/06/01 01:06:31;;;;;;;9.98;5.22;;;14.10;99.90;;;;;;4903433;29;20213;-82
2023/06/01 01:09:23;;;;;;;6.05;4.55;;;13.70;99.90;;;;;;4902337;29;20244;-81
2023/06/01 01:11:58;;;;;;;8.90;5.55;;;13.70;99.90;;;;;;4893045;29;20209;-80
2023/06/01 01:14:33;;;;;;;10.30;5.78;;;13.60;99.90;;;;;;4898896;29;20213;-82
2023/06/01 01:17:32;;;;;;;7.05;5.55;;;13.60;99.90;;;;;;4897002;29;20381;-82
2023/06/01 01:20:27;;;;;;;8.60;5.95;;;13.60;99.90;;;;;;4902041;29;20261;-82
2023/06/01 01:23:00;;;;;;;11.55;5.05;;;13.60;99.90;;;;;;4900292;29;20269;-81
2023/06/01 01:25:49;;;;;;;6.70;6.03;;;13.50;99.90;;;;;;4892914;29;20327;-80
2023/06/01 01:28:42;;;;;;;11.55;5.75;;;13.40;99.90;;;;;;4896887;29;20214;-81
2023/06/01 01:31:12;;;;;;;16.33;5.32;;;13.40;99.90;;;;;;4896901;29;20200;-80
2023/06/01 01:33:41;;;;;;;6.60;4.50;;;13.30;99.90;;;;;;4902791;29;20212;-82
2023/06/01 01:36:10;;;;;;;6.50;5.60;;;13.40;99.90;;;;;;4890065;29;20209;-81
2023/06/01 01:38:37;;;;;;;6.13;4.65;;;13.30;99.90;;;;;;4903872;29;20217;-83
2023/06/01 01:41:05;;;;;;;10.45;4.88;;;13.70;99.90;;;;;;4900130;29;20201;-79
2023/06/01 01:43:34;;;;;;;8.18;5.05;;;13.20;99.90;;;;;;4894311;29;20493;-82
2023/06/01 01:46:26;;;;;;;5.95;4.70;;;13.10;99.90;;;;;;4892054;29;20216;-81
2023/06/01 01:49:14;;;;;;;9.02;5.70;;;13.10;99.90;;;;;;4894140;29;20574;-81
2023/06/01 01:51:51;;;;;;;10.10;6.10;;;12.80;99.90;;;;;;4900078;29;20213;-82
2023/06/01 01:54:20;;;;;;;7.05;5.20;;;13.20;99.90;;;;;;4891485;29;20221;-81
2023/06/01 01:56:48;;;;;;;7.40;5.50;;;13.20;99.90;;;;;;4918085;29;20217;-82
2023/06/01 01:59:16;;;;;;;5.15;4.22;;;13.10;99.90;;;;;;4903217;29;20248;-81
2023/06/01 02:01:44;;;;;;;6.13;5.00;;;13.20;99.90;;;;;;4907916;29;20216;-82
2023/06/01 02:04:12;;;;;;;12.60;5.40;;;13.90;99.90;;;;;;4907672;29;20247;-81
2023/06/01 02:06:39;;;;;;;5.75;4.95;;;13.10;99.90;;;;;;4903893;29;20555;-82
2023/06/01 02:09:07;;;;;;;8.57;4.85;;;13.20;99.90;;;;;;4901793;29;20213;-80
2023/06/01 02:11:35;;;;;;;8.32;5.88;;;13.20;99.90;;;;;;4899811;29;20213;-81
2023/06/01 02:14:03;;;;;;;6.93;5.80;;;13.10;99.90;;;;;;4898756;29;20220;-81
2023/06/01 02:16:31;;;;;;;8.23;4.05;;;12.70;99.90;;;;;;4906953;29;20205;-82
2023/06/01 02:18:58;;;;;;;10.82;6.35;;;13.00;99.90;;;;;;4899157;29;20210;-82
2023/06/01 02:21:26;;;;;;;7.97;5.55;;;13.30;99.90;;;;;;4921435;29;20285;-81
2023/06/01 02:23:53;;;;;;;6.38;5.20;;;13.60;99.90;;;;;;4901844;29;20240;-82
2023/06/01 02:26:21;;;;;;;12.07;5.38;;;13.30;99.90;;;;;;4899401;29;20221;-83
2023/06/01 02:28:48;;;;;;;7.30;5.25;;;12.70;99.90;;;;;;4903868;29;20217;-83
2023/06/01 02:31:15;;;;;;;9.32;5.05;;;13.00;99.90;;;;;;4913302;29;20509;-84
2023/06/01 02:33:44;;;;;;;9.85;5.78;;;13.60;99.90;;;;;;4928080;29;20252;-83
2023/06/01 02:36:12;;;;;;;5.82;5.13;;;13.00;99.90;;;;;;4903105;29;20219;-82
2023/06/01 02:38:41;;;;;;;9.15;5.70;;;12.90;99.90;;;;;;4904055;29;20216;-83
2023/06/01 02:41:08;;;;;;;8.27;5.90;;;12.30;99.90;;;;;;4896479;29;20230;-82
2023/06/01 02:43:35;;;;;;;17.00;5.80;;;13.00;99.90;;;;;;4904496;29;20209;-84
2023/06/01 02:46:03;;;;;;;6.28;5.35;;;13.00;99.90;;;;;;4898388;29;20228;-82
2023/06/01 02:48:30;;;;;;;6.40;5.80;;;12.50;99.90;;;;;;4899472;29;20220;-83
2023/06/01 02:50:57;;;;;;;9.50;5.10;;;12.90;99.90;;;;;;4893515;29;20562;-80
2023/06/01 02:53:28;;;;;;;7.85;6.00;;;12.60;99.90;;;;;;4903196;29;20248;-81
2023/06/01 02:55:55;;;;;;;7.15;4.97;;;13.70;99.90;;;;;;4906090;29;20212;-82
2023/06/01 02:58:25;;;;;;;10.85;5.95;;;13.60;99.90;;;;;;4900909;29;20478;-83
2023/06/01 03:00:52;;;;;;;12.93;5.07;;;13.10;99.90;;;;;;4899543;29;20513;-83
2023/06/01 03:03:19;;;;;;;7.50;6.22;;;13.00;99.90;;;;;;4900157;29;20214;-83
2023/06/01 03:05:47;;;;;;;12.30;6.18;;;13.00;99.90;;;;;;4894901;29;20248;-82
2023/06/01 03:08:16;;;;;;;9.88;5.40;;;13.00;99.90;;;;;;4900228;29;20213;-82
2023/06/01 03:10:44;;;;;;;11.07;6.00;;;12.70;99.90;;;;;;4896817;29;20232;-82
2023/06/01 03:13:12;;;;;;;9.30;5.60;;;13.10;99.90;;;;;;4898044;29;20213;-81
2023/06/01 03:15:39;;;;;;;6.65;5.20;;;13.00;99.90;;;;;;4910772;29;20222;-81
2023/06/01 03:18:06;;;;;;;6.78;5.72;;;13.70;99.90;;;;;;4895613;29;20553;-83
2023/06/01 03:20:34;;;;;;;9.57;5.43;;;13.40;99.90;;;;;;4897013;29;20217;-82
2023/06/01 03:23:01;;;;;;;6.90;5.00;;;13.30;99.90;;;;;;4894047;29;20214;-82
2023/06/01 03:25:28;;;;;;;5.65;4.53;;;13.50;99.90;;;;;;4903921;29;20313;-82
2023/06/01 03:27:55;;;;;;;7.82;5.32;;;12.80;99.90;;;;;;4904600;29;20389;-81
2023/06/01 03:30:23;;;;;;;6.85;5.20;;;14.50;99.90;;;;;;4900920;29;20434;-81
2023/06/01 03:32:51;;;;;;;9.43;6.55;;;13.60;99.90;;;;;;4901808;29;20292;-82
2023/06/01 03:35:18;;;;;;;12.02;5.85;;;13.00;99.90;;;;;;4891110;29;20217;-79
2023/06/01 03:37:47;;;;;;;8.38;4.90;;;13.30;99.90;;;;;;4904006;29;20212;-80
2023/06/01 03:40:14;;;;;;;10.95;5.25;;;14.30;99.90;;;;;;4918198;29;20302;-81
2023/06/01 03:42:43;;;;;;;5.88;5.28;;;14.00;99.90;;;;;;4897141;29;20255;-81
2023/06/01 03:45:11;;;;;;;10.52;4.70;;;14.10;99.90;;;;;;4896878;29;20244;-82
2023/06/01 03:47:39;;;;;;;5.97;4.65;;;13.70;99.90;;;;;;4900027;29;20408;-81
2023/06/01 03:50:09;;;;;;;8.15;4.97;;;13.90;99.90;;;;;;4895535;29;20209;-82
2023/06/01 03:52:37;;;;;;;9.90;5.20;;;14.30;99.90;;;;;;4903312;29;20193;-80
2023/06/01 03:55:08;;;;;;;6.47;4.57;;;14.40;99.90;;;;;;4910761;29;20213;-81
2023/06/01 03:57:36;;;;;;;7.85;4.72;;;14.50;99.90;;;;;;4911821;29;20205;-81
2023/06/01 04:00:20;;;;;;;5.13;3.72;;;14.80;99.90;;;;;;4909876;29;20562;-81
2023/06/01 04:02:52;;;;;;;5.45;3.85;;;15.00;99.90;;;;;;4915278;29;20223;-82
2023/06/01 04:05:21;;;;;;;15.05;5.00;;;15.20;99.90;;;;;;4908606;29;20318;-83
2023/06/01 04:07:51;;;;;;;7.65;5.05;;;15.30;99.90;;;;;;4906900;29;20212;-82
2023/06/01 04:10:18;;;;;;;5.90;4.53;;;15.50;99.90;;;;;;4908001;29;20218;-83
2023/06/01 04:12:46;;;;;;;10.60;5.03;;;15.40;99.90;;;;;;4922296;29;20422;-83
2023/06/01 04:15:15;;;;;;;9.53;4.73;;;14.70;99.90;;;;;;4892222;29;20926;-84
2023/06/01 04:17:43;;;;;;;5.40;4.47;;;15.40;99.90;;;;;;4899255;29;20453;-84
2023/06/01 04:20:18;;;;;;;13.10;4.57;;;15.30;99.90;;;;;;4903472;29;20531;-83
2023/06/01 04:22:45;;;;;;;4.93;3.87;;;15.20;99.90;;;;;;4899771;29;20441;-83
2023/06/01 04:25:18;;;;;;;6.60;4.30;;;15.70;99.90;;;;;;4903220;29;20493;-82
2023/06/01 04:27:51;;;;;;;5.73;4.40;;;16.20;99.90;;;;;;4893977;29;20458;-82
2023/06/01 04:30:18;;;;;;;8.60;5.73;;;16.00;99.90;;;;;;4897450;29;20447;-82
2023/06/01 04:32:53;;;;;;;9.30;5.00;;;16.00;99.90;;;;;;4897823;29;20446;-83
2023/06/01 04:35:20;;;;;;;7.50;5.03;;;16.10;99.90;;;;;;4884287;29;20463;-80
2023/06/01 04:37:49;;;;;;;6.30;3.90;;;16.10;99.90;;;;;;4891332;29;20501;-79
2023/06/01 04:40:16;;;;;;;17.47;5.90;;;16.00;99.90;;;;;;4895066;29;20432;-80
2023/06/01 04:42:51;;;;;;;8.70;4.97;;;16.10;99.90;;;;;;4891741;29;20452;-80
2023/06/01 04:45:18;;;;;;;6.13;4.50;;;16.20;99.90;;;;;;4904020;29;20670;-84
2023/06/01 04:47:47;;;;;;;12.80;4.47;;;16.30;99.90;;;;;;4905603;29;20455;-83
2023/06/01 04:50:15;;;;;;;11.77;5.47;;;16.50;99.90;;;;;;4899945;29;20446;-84
2023/06/01 04:52:43;;;;;;;5.67;5.10;;;16.50;99.90;;;;;;4890319;29;20468;-83
2023/06/01 04:55:15;;;;;;;12.90;5.43;;;16.20;99.90;;;;;;4903839;29;20484;-84
2023/06/01 04:57:43;;;;;;;7.40;4.40;;;16.00;99.90;;;;;;4901160;29;20510;-82
2023/06/01 05:00:17;;;;;;;6.83;4.40;;;16.80;99.90;;;;;;4901466;29;20451;-83
2023/06/01 05:02:47;;;;;;;9.67;4.63;;;16.30;99.90;;;;;;4900573;29;20462;-84
2023/06/01 05:05:27;;;;;;;11.10;5.47;;;16.60;99.90;;;;;;4893429;29;20685;-85
2023/06/01 05:07:57;;;;;;;8.97;4.93;;;17.40;99.90;;;;;;4897241;29;20995;-84
2023/06/01 05:10:27;;;;;;;6.13;4.00;;;17.40;99.90;;;;;;4901751;29;20492;-81
2023/06/01 05:12:54;;;;;;;9.13;4.90;;;15.50;99.90;;;;;;4896563;29;20516;-83
2023/06/01 05:15:21;;;;;;;9.10;4.90;;;15.90;99.90;;;;;;4896207;29;20429;-83
2023/06/01 05:17:50;;;;;;;7.67;6.70;;;16.00;99.90;;;;;;4901116;29;20739;-82
2023/06/01 05:20:19;;;;;;;9.00;5.77;;;16.40;99.90;;;;;;4915088;29;20869;-82
2023/06/01 05:22:47;;;;;;;9.67;5.53;;;16.30;99.90;;;;;;4891629;29;20441;-82
2023/06/01 05:25:16;;;;;;;9.20;5.60;;;16.70;99.90;;;;;;4894158;29;20504;-84
2023/06/01 05:27:54;;;;;;;7.30;4.00;;;16.70;99.90;;;;;;4900935;29;20446;-82
2023/06/01 05:30:20;;;;;;;10.87;5.30;;;16.90;99.90;;;;;;4900731;29;20552;-83
2023/06/01 05:32:47;;;;;;;11.30;7.60;;;17.30;99.90;;;;;;4896656;29;20443;-83
2023/06/01 05:35:14;;;;;;;14.23;5.17;;;17.00;99.90;;;;;;4896645;29;20494;-82
2023/06/01 05:37:41;;;;;;;5.50;4.30;;;18.30;99.90;;;;;;4889785;29;20442;-84
2023/06/01 05:40:12;;;;;;;10.37;5.10;;;17.90;99.90;;;;;;4894214;29;20503;-80
2023/06/01 05:42:39;;;;;;;8.20;4.40;;;18.10;99.90;;;;;;4895848;29;20436;-79
2023/06/01 05:45:06;;;;;;;12.07;5.10;;;18.30;99.90;;;;;;4897105;29;20469;-79
2023/06/01 05:47:33;;;;;;;10.20;6.80;;;18.50;99.90;;;;;;4896883;29;20456;-80
2023/06/01 05:50:00;;;;;;;5.50;3.57;;;18.60;99.90;;;;;;4898445;29;20449;-80
2023/06/01 05:52:27;;;;;;;6.43;4.60;;;18.70;99.90;;;;;;4886420;29;20453;-81
2023/06/01 05:54:54;;;;;;;7.00;4.70;;;19.40;99.90;;;;;;4898156;29;20427;-81
2023/06/01 05:57:21;;;;;;;13.60;5.57;;;19.50;99.90;;;;;;4905715;29;20415;-80
2023/06/01 05:59:48;;;;;;;8.60;4.63;;;19.40;99.90;;;;;;4896830;29;20786;-79
2023/06/01 06:02:15;;;;;;;8.10;4.70;;;19.50;99.90;;;;;;4895478;29;20831;-79
2023/06/01 06:04:43;;;;;;;17.90;5.03;;;19.70;99.90;;;;;;4891630;29;20419;-81
2023/06/01 06:07:11;;;;;;;6.37;4.20;;;19.80;99.90;;;;;;4900587;29;20823;-79
2023/06/01 06:09:38;;;;;;;8.90;4.40;;;20.00;99.90;;;;;;4892454;29;20479;-81
2023/06/01 06:12:05;;;;;;;9.83;3.90;;;20.40;99.90;;;;;;4901989;29;20463;-82
2023/06/01 06:14:33;;;;;;;4.30;3.90;;;20.30;99.90;;;;;;4901801;29;20430;-80
2023/06/01 06:17:00;;;;;;;9.20;4.97;;;20.40;99.90;;;;;;4896525;29;20470;-80
2023/06/01 06:19:27;;;;;;;10.40;4.43;;;20.70;99.90;;;;;;4907762;29;20499;-79
2023/06/01 06:21:55;;;;;;;5.40;3.77;;;21.00;99.90;;;;;;4909612;29;20500;-80
2023/06/01 06:24:22;;;;;;;13.43;3.90;;;21.80;99.90;;;;;;4895078;29;20502;-79
2023/06/01 06:26:49;;;;;;;9.00;4.20;;;21.40;99.90;;;;;;4903881;29;21028;-80
2023/06/01 06:29:15;;;;;;;4.47;3.73;;;21.50;99.90;;;;;;4900997;29;20502;-80
2023/06/01 06:31:44;;;;;;;7.33;3.87;;;21.50;99.90;;;;;;4902792;29;21073;-80
2023/06/01 06:34:12;;;;;;;5.27;3.77;;;21.80;99.90;;;;;;4903724;29;20459;-79
2023/06/01 06:36:39;;;;;;;7.03;4.00;;;22.00;99.90;;;;;;4899078;29;20459;-81
2023/06/01 06:39:11;;;;;;;6.10;3.80;;;22.20;99.90;;;;;;4897871;29;20448;-80
2023/06/01 06:41:39;;;;;;;4.20;3.60;;;22.50;99.90;;;;;;4904932;29;20460;-82
2023/06/01 06:44:06;;;;;;;5.03;3.70;;;22.80;99.90;;;;;;4898068;29;20437;-79
2023/06/01 06:46:33;;;;;;;8.50;3.60;;;23.10;99.90;;;;;;4905221;29;20491;-82
2023/06/01 06:49:00;;;;;;;6.40;3.60;;;23.40;99.90;;;;;;4904979;29;20502;-83
2023/06/01 06:51:27;;;;;;;5.50;4.23;;;23.50;99.90;;;;;;4906032;29;20459;-79
2023/06/01 06:53:54;;;;;;;7.13;4.00;;;23.70;99.90;;;;;;4895655;29;20420;-80
2023/06/01 06:56:21;;;;;;;8.70;3.83;;;24.00;99.90;;;;;;4899411;29;20790;-81
2023/06/01 06:58:48;;;;;;;5.50;3.17;;;25.20;99.90;;;;;;4898929;29;20439;-79
2023/06/01 07:01:35;;;;;;;2.97;2.67;;;26.40;99.90;;;;;;4907119;29;20523;-80
2023/06/01 07:04:05;;;;;;;9.13;3.70;;;27.00;98.50;;;;;;4900101;29;20491;-80
2023/06/01 07:06:33;;;;;;;6.53;3.70;;;26.60;98.10;;;;;;4897805;29;20776;-82
2023/06/01 07:09:00;;;;;;;4.10;2.83;;;27.50;95.80;;;;;;4906839;29;20771;-81
2023/06/01 07:11:27;;;;;;;5.37;3.20;;;28.20;93.10;;;;;;4907841;29;20452;-80
2023/06/01 07:13:57;;;;;;;7.13;3.17;;;28.90;90.00;;;;;;4898733;29;20440;-79
2023/06/01 07:16:29;;;;;;;10.23;3.60;;;29.30;87.50;;;;;;4905703;29;20448;-79
2023/06/01 07:18:56;;;;;;;3.73;3.10;;;29.70;81.10;;;;;;4905534;29;20440;-80
2023/06/01 07:21:23;;;;;;;3.60;3.27;;;30.10;78.90;;;;;;4903471;29;20460;-79
2023/06/01 07:23:50;;;;;;;9.13;2.90;;;30.50;76.30;;;;;;4905048;29;20475;-79
2023/06/01 07:26:17;;;;;;;7.03;2.87;;;32.00;71.20;;;;;;4901882;29;20481;-80
2023/06/01 07:28:46;;;;;;;6.00;3.63;;;33.20;64.40;;;;;;4896975;29;20462;-80
2023/06/01 07:31:13;;;;;;;6.20;4.07;;;34.40;59.10;;;;;;4899683;29;20448;-80
2023/06/01 07:33:41;;;;;;;5.93;2.90;;;35.20;53.00;;;;;;4896823;29;20804;-80
2023/06/01 07:36:08;;;;;;;5.57;3.10;;;36.00;49.00;;;;;;4902538;29;20504;-80
2023/06/01 07:38:34;;;;;;;8.47;3.30;;;36.90;46.80;;;;;;4903043;29;20784;-85
2023/06/01 07:41:01;;;;;;;3.10;2.70;;;37.10;45.00;;;;;;4911015;29;20432;-81
2023/06/01 07:43:28;;;;;;;3.87;3.10;;;36.90;43.50;;;;;;4904480;29;20436;-82
2023/06/01 07:46:04;;;;;;;5.57;3.40;;;36.80;43.40;;;;;;4896071;29;20819;-84
2023/06/01 07:48:38;;;;;;;4.80;3.33;;;36.90;43.70;;;;;;4895416;29;20458;-84
2023/06/01 07:51:06;;;;;;;3.10;2.80;;;36.70;43.10;;;;;;4897571;29;20443;-82
2023/06/01 07:53:34;;;;;;;3.63;3.33;;;37.30;42.40;;;;;;4898074;29;20448;-83
2023/06/01 07:56:02;;;;;;;5.50;3.50;;;37.40;41.20;;;;;;4895607;29;20463;-83
2023/06/01 07:58:30;;;;;;;5.30;3.50;;;37.00;40.90;;;;;;4895775;29;20457;-84
2023/06/01 08:00:57;;;;;;;4.07;3.67;;;36.40;41.40;;;;;;4899565;29;20552;-80
2023/06/01 08:03:25;;;;;;;8.00;3.90;;;36.50;40.10;;;;;;4895175;29;20502;-81
2023/06/01 08:05:57;;;;;;;4.10;3.40;;;36.90;39.90;;;;;;4890561;29;20504;-83
2023/06/01 08:08:24;;;;;;;7.10;3.67;;;37.30;40.20;;;;;;4909054;29;20443;-81
2023/06/01 08:10:52;;;;;;;4.23;3.30;;;38.20;39.60;;;;;;4892463;29;20457;-80
2023/06/01 08:13:20;;;;;;;15.70;3.60;;;38.40;38.70;;;;;;4901027;29;20713;-79
2023/06/01 08:15:47;;;;;;;4.77;3.40;;;39.30;37.90;;;;;;4891693;29;20560;-80
2023/06/01 08:18:15;;;;;;;6.77;3.73;;;40.30;37.00;;;;;;4906415;29;20447;-82
2023/06/01 08:20:44;;;;;;;5.83;3.53;;;39.70;37.00;;;;;;4905937;29;20448;-82
2023/06/01 08:23:11;;;;;;;14.57;3.43;;;38.90;36.50;;;;;;4908254;29;20826;-82
2023/06/01 08:25:38;;;;;;;5.70;3.93;;;38.20;37.60;;;;;;4910198;29;20501;-81
2023/06/01 08:28:05;;;;;;;4.70;2.60;;;38.10;38.20;;;;;;4902978;29;20925;-79
2023/06/01 08:30:32;;;;;;;5.47;2.63;;;38.70;37.00;;;;;;4898072;29;20451;-86
2023/06/01 08:32:59;;;;;;;2.93;2.63;;;39.20;37.20;;;;;;4926031;29;20450;-81
2023/06/01 08:35:26;;;;;;;4.17;2.33;;;39.10;37.00;;;;;;4898116;29;20456;-81
2023/06/01 08:37:53;;;;;;;2.43;2.23;;;39.00;36.40;;;;;;4894489;29;20452;-85
2023/06/01 08:40:20;;;;;;;4.93;2.50;;;38.80;36.30;;;;;;4898054;29;20640;-82
2023/06/01 08:42:59;;;;;;;5.17;2.30;;;37.60;37.20;;;;;;4910341;29;20463;-81
2023/06/01 08:45:26;;;;;;;2.17;1.97;;;37.90;37.00;;;;;;4903101;29;20448;-79
2023/06/01 08:47:54;;;;;;;2.20;2.00;;;38.60;36.30;;;;;;4902809;29;20702;-81
2023/06/01 08:50:22;;;;;;;3.40;2.83;;;38.30;35.90;;;;;;4892266;29;20799;-82
2023/06/01 08:52:52;;;;;;;3.83;2.30;;;38.30;35.40;;;;;;4903202;29;20507;-82
2023/06/01 08:55:21;;;;;;;2.40;1.63;;;38.70;34.80;;;;;;4900483;29;20464;-82
2023/06/01 08:57:47;;;;;;;2.33;2.13;;;38.40;34.50;;;;;;4892515;29;20453;-85
2023/06/01 09:00:16;;;;;;;3.20;2.00;;;38.30;34.70;;;;;;4907834;29;20550;-85
2023/06/01 09:02:44;;;;;;;3.30;2.10;;;37.80;35.90;;;;;;4885535;29;20452;-80
2023/06/01 09:05:13;;;;;;;3.23;2.23;;;37.00;37.00;;;;;;4906293;29;20451;-81
2023/06/01 09:07:40;;;;;;;2.57;2.27;;;37.50;37.10;;;;;;4906984;29;20584;-80
2023/06/01 09:10:07;;;;;;;3.20;2.90;;;37.50;36.80;;;;;;4900858;29;20455;-82
2023/06/01 09:12:38;;;;;;;4.20;2.60;;;37.70;36.30;;;;;;4909056;29;20687;-81
2023/06/01 09:15:10;;;;;;;2.43;1.90;;;37.80;35.90;;;;;;4907570;29;20742;-81
2023/06/01 09:17:39;;;;;;;7.50;2.80;;;38.40;35.70;;;;;;4904665;29;20452;-79
2023/06/01 09:20:11;;;;;;;2.20;2.00;;;38.40;35.30;;;;;;4899404;29;20453;-83
2023/06/01 09:22:42;;;;;;;3.83;2.20;;;38.30;35.50;;;;;;4901967;29;20791;-81
2023/06/01 09:25:22;;;;;;;2.30;2.00;;;37.60;35.70;;;;;;4898100;29;20479;-85
2023/06/01 09:27:50;;;;;;;3.63;1.90;;;37.50;35.10;;;;;;4916720;29;20444;-83
2023/06/01 09:30:20;;;;;;;3.93;1.67;;;34.80;36.70;;;;;;4899610;29;20452;-81
2023/06/01 09:32:50;;;;;;;2.83;1.70;;;34.10;38.90;;;;;;4909263;29;20462;-87
2023/06/01 09:35:49;;;;;;;3.00;1.87;;;33.30;41.20;;;;;;4901643;29;20490;-87
2023/06/01 09:38:24;;;;;;;2.87;2.27;;;31.10;42.70;;;;;;4909466;29;20470;-83
2023/06/01 09:41:02;;;;;;;4.37;2.47;;;29.80;45.10;;;;;;4906571;29;20509;-80
2023/06/01 09:43:37;;;;;;;3.40;1.80;;;28.70;46.80;;;;;;4903760;29;20809;-80
2023/06/01 09:46:13;;;;;;;5.87;2.40;;;28.20;48.30;;;;;;4892320;29;20486;-84
2023/06/01 09:48:43;;;;;;;4.80;2.40;;;27.90;49.00;;;;;;4895549;29;20749;-83
2023/06/01 09:51:22;;;;;;;4.30;2.40;;;27.60;51.00;;;;;;4905200;29;20451;-83
2023/06/01 09:53:49;;;;;;;4.93;2.23;;;27.20;51.30;;;;;;4892904;29;20817;-80
2023/06/01 09:56:16;;;;;;;3.40;2.63;;;27.10;52.10;;;;;;4894645;29;20436;-84
2023/06/01 09:58:44;;;;;;;2.17;1.97;;;27.40;53.40;;;;;;4904162;29;20544;-81
2023/06/01 10:01:12;;;;;;;3.83;2.53;;;27.30;53.90;;;;;;4911129;29;20527;-86
2023/06/01 10:03:42;;;;;;;2.67;1.90;;;27.30;53.40;;;;;;4903562;29;20696;-85
2023/06/01 10:06:14;;;;;;;6.73;2.90;;;27.40;54.00;;;;;;4889964;29;20534;-83
2023/06/01 10:08:42;;;;;;;2.50;2.20;;;27.50;54.40;;;;;;4903048;29;20516;-83
2023/06/01 10:11:10;;;;;;;3.13;2.40;;;27.40;54.70;;;;;;4895908;29;20449;-84
2023/06/01 10:13:37;;;;;;;5.83;2.03;;;27.30;55.40;;;;;;4914585;29;20482;-81
2023/06/01 10:16:05;;;;;;;6.37;2.30;;;27.50;54.40;;;;;;4898735;29;21019;-82
2023/06/01 10:18:36;;;;;;;7.23;2.50;;;27.40;54.70;;;;;;4908840;29;20453;-85
2023/06/01 10:21:06;;;;;;;6.33;2.30;;;27.30;55.30;;;;;;4900189;29;20449;-86
2023/06/01 10:23:34;;;;;;;5.70;3.40;;;27.50;55.20;;;;;;4900959;29;20440;-85
2023/06/01 10:26:11;;;;;;;2.57;1.90;;;27.50;55.60;;;;;;4907445;29;20474;-84
2023/06/01 10:28:40;;;;;;;4.50;2.60;;;27.30;54.90;;;;;;4920512;29;20424;-85
2023/06/01 10:31:36;;;;;;;2.40;2.23;;;27.00;55.80;;;;;;4910794;29;20453;-85
2023/06/01 10:34:04;;;;;;;4.40;2.20;;;26.70;56.10;;;;;;4894269;29;20420;-83
2023/06/01 10:36:51;;;;;;;3.70;3.03;;;26.50;57.30;;;;;;4907185;29;20489;-80
2023/06/01 10:39:26;;;;;;;2.80;2.50;;;26.60;57.60;;;;;;4910345;29;20506;-82
2023/06/01 10:41:55;;;;;;;2.57;2.33;;;26.80;58.40;;;;;;4906466;29;20459;-82
2023/06/01 10:44:43;;;;;;;3.20;2.20;;;26.80;58.60;;;;;;4906224;29;20648;-82
2023/06/01 10:47:12;;;;;;;7.30;2.33;;;26.80;59.00;;;;;;4904248;29;20739;-84
2023/06/01 10:50:00;;;;;;;3.23;2.10;;;26.70;59.40;;;;;;4906608;29;20770;-81
2023/06/01 10:52:29;;;;;;;2.40;2.20;;;26.60;59.90;;;;;;4904470;29;20467;-84
2023/06/01 10:55:16;;;;;;;5.50;2.60;;;26.60;61.50;;;;;;4911181;29;20507;-81
2023/06/01 10:57:44;;;;;;;2.03;1.90;;;26.80;60.70;;;;;;4893894;29;20456;-83
2023/06/01 11:00:18;;;;;;;4.90;1.93;;;26.80;60.00;;;;;;4907417;29;20479;-85
2023/06/01 11:03:03;;;;;;;4.77;2.80;;;26.80;58.50;;;;;;4899159;29;20452;-85
2023/06/01 11:05:33;;;;;;;4.83;2.47;;;26.70;58.70;;;;;;4898299;29;20479;-83
2023/06/01 11:08:00;;;;;;;4.60;2.37;;;26.60;60.80;;;;;;4891646;29;20508;-79
2023/06/01 11:11:06;;;;;;;3.77;1.90;;;26.90;60.60;;;;;;4894397;29;20438;-84
2023/06/01 11:13:39;;;;;;;6.57;2.30;;;27.10;60.70;;;;;;4877025;29;20463;-84
2023/06/01 11:16:21;;;;;;;3.87;2.73;;;26.90;61.00;;;;;;4891877;29;20764;-86
2023/06/01 11:19:06;;;;;;;4.40;2.70;;;27.00;62.10;;;;;;4907480;29;20452;-80
2023/06/01 11:21:44;;;;;;;4.23;2.23;;;27.20;62.60;;;;;;4907331;29;20522;-81
2023/06/01 11:24:17;;;;;;;4.27;2.87;;;26.90;63.10;;;;;;4899380;29;20411;-83
2023/06/01 11:26:46;;;;;;;2.73;2.50;;;27.20;64.20;;;;;;4899679;29;20540;-80
2023/06/01 11:29:17;;;;;;;7.37;2.40;;;27.00;63.40;;;;;;4908800;29;20444;-81
2023/06/01 11:31:59;;;;;;;4.67;2.13;;;27.40;64.00;;;;;;4921290;29;20453;-84
2023/06/01 11:34:38;;;;;;;4.07;2.27;;;26.90;62.60;;;;;;4896579;29;20524;-84
2023/06/01 11:37:12;;;;;;;6.70;2.77;;;26.80;61.50;;;;;;4899068;29;20723;-88
2023/06/01 11:39:40;;;;;;;5.27;2.57;;;26.50;62.70;;;;;;4889097;29;20633;-84
2023/06/01 11:42:15;;;;;;;3.40;2.60;;;26.40;64.30;;;;;;4895725;29;20534;-83
2023/06/01 11:44:46;;;;;;;4.13;2.47;;;26.40;65.30;;;;;;4895220;29;20877;-83
2023/06/01 11:47:13;;;;;;;4.30;2.70;;;26.40;64.50;;;;;;4891223;29;20707;-82
2023/06/01 11:49:44;;;;;;;4.30;2.63;;;26.40;65.20;;;;;;4905275;29;20425;-81
2023/06/01 11:52:12;;;;;;;3.30;2.30;;;26.80;67.40;;;;;;4902125;29;20463;-81
2023/06/01 11:54:39;;;;;;;5.07;2.53;;;26.20;68.10;;;;;;4898705;29;20443;-80
2023/06/01 11:57:08;;;;;;;3.83;2.20;;;26.40;69.20;;;;;;4901096;29;20504;-83
2023/06/01 11:59:39;;;;;;;4.20;2.63;;;26.40;67.90;;;;;;4913949;29;20519;-84
2023/06/01 12:02:18;;;;;;;2.33;2.13;;;26.40;69.10;;;;;;4903097;29;20441;-80
2023/06/01 12:05:08;;;;;;;3.17;2.27;;;26.40;70.30;;;;;;4903032;29;20437;-84
2023/06/01 12:07:50;;;;;;;5.60;2.80;;;26.40;71.60;;;;;;4892820;29;20451;-81
2023/06/01 12:10:19;;;;;;;1.90;1.70;;;26.70;71.10;;;;;;4905183;29;20467;-80
2023/06/01 12:12:47;;;;;;;2.60;2.40;;;26.80;70.40;;;;;;4899698;29;20652;-83
2023/06/01 12:15:18;;;;;;;3.80;2.57;;;26.80;71.30;;;;;;4908543;29;20459;-83
2023/06/01 12:17:49;;;;;;;3.17;2.87;;;27.00;70.40;;;;;;4898769;29;20444;-85
2023/06/01 12:20:31;;;;;;;6.73;2.77;;;27.30;70.40;;;;;;4902585;29;20426;-84
2023/06/01 12:23:05;;;;;;;2.93;2.30;;;26.90;70.60;;;;;;4902098;29;20429;-84
2023/06/01 12:25:32;;;;;;;3.73;2.90;;;27.10;72.30;;;;;;4903355;29;20510;-85
2023/06/01 12:28:08;;;;;;;5.10;2.90;;;26.80;69.50;;;;;;4904652;29;20478;-85
2023/06/01 12:30:36;;;;;;;3.43;2.43;;;26.70;72.60;;;;;;4919596;29;20430;-84
2023/06/01 12:33:08;;;;;;;5.30;2.20;;;27.30;73.20;;;;;;4898731;29;20460;-81
2023/06/01 12:35:51;;;;;;;9.83;2.70;;;26.70;71.90;;;;;;4898154;29;20418;-86
2023/06/01 12:38:25;;;;;;;2.60;2.40;;;26.70;72.90;;;;;;4897519;29;20720;-86
2023/06/01 12:41:11;;;;;;;3.43;2.37;;;26.70;71.40;;;;;;4905617;29;20466;-84
2023/06/01 12:43:43;;;;;;;4.77;3.47;;;26.50;72.70;;;;;;4904015;29;20414;-85
2023/06/01 12:46:22;;;;;;;6.57;3.23;;;26.50;73.50;;;;;;4895812;29;20422;-86
2023/06/01 12:48:51;;;;;;;2.80;2.17;;;26.50;73.20;;;;;;4906793;29;20499;-81
2023/06/01 12:51:18;;;;;;;6.70;3.67;;;26.60;73.10;;;;;;4904351;29;20778;-86
2023/06/01 12:53:47;;;;;;;5.53;4.20;;;26.80;71.70;;;;;;4903269;29;20629;-79
2023/06/01 12:56:15;;;;;;;7.10;3.10;;;26.50;71.70;;;;;;4902944;29;20514;-85
2023/06/01 12:58:46;;;;;;;4.60;3.13;;;26.60;72.50;;;;;;4908849;29;20483;-88
2023/06/01 13:01:15;;;;;;;4.37;3.17;;;26.70;72.60;;;;;;4898841;29;20808;-84